createdAt,value
2017-02-07T00:00:26.058Z,97.49
2017-02-07T00:01:06.634Z,97.49
2017-02-07T00:01:47.273Z,97.49
2017-02-07T00:02:27.894Z,97.11
2017-02-07T00:03:08.463Z,97.49
2017-02-07T00:03:49.107Z,98.15
2017-02-07T00:04:29.704Z,97.39
2017-02-07T00:05:10.303Z,97.49
2017-02-07T00:05:50.882Z,97.39
2017-02-07T00:06:31.525Z,97.49
2017-02-07T00:07:12.204Z,97.49
2017-02-07T00:07:52.817Z,97.39
2017-02-07T00:08:33.463Z,97.49
2017-02-07T00:09:14.111Z,97.49
2017-02-07T00:09:54.784Z,97.49
2017-02-07T00:10:35.435Z,97.39
2017-02-07T00:11:16.071Z,97.39
2017-02-07T00:11:56.730Z,97.68
2017-02-07T00:12:37.297Z,97.49
2017-02-07T00:13:17.951Z,97.49
2017-02-07T00:13:58.616Z,97.3
2017-02-07T00:14:39.256Z,97.49
2017-02-07T00:15:19.917Z,97.96
2017-02-07T00:16:00.547Z,97.49
2017-02-07T00:16:41.223Z,97.77
2017-02-07T00:17:21.858Z,97.77
2017-02-07T00:18:02.528Z,97.77
2017-02-07T00:18:43.183Z,97.77
2017-02-07T00:19:23.848Z,97.77
2017-02-07T00:20:04.579Z,97.58
2017-02-07T00:20:45.244Z,97.68
2017-02-07T00:21:26.000Z,97.68
2017-02-07T00:22:06.653Z,97.58
2017-02-07T00:22:47.384Z,97.49
2017-02-07T00:23:28.163Z,97.58
2017-02-07T00:24:08.905Z,97.58
2017-02-07T00:24:49.675Z,97.58
2017-02-07T00:25:30.443Z,97.49
2017-02-07T00:26:11.202Z,97.49
2017-02-07T00:26:51.834Z,97.87
2017-02-07T00:27:32.490Z,97.39
2017-02-07T00:28:13.141Z,97.68
2017-02-07T00:28:53.794Z,97.39
2017-02-07T00:29:34.426Z,97.68
2017-02-07T00:30:15.102Z,97.77
2017-02-07T00:30:55.737Z,97.49
2017-02-07T00:31:36.400Z,97.58
2017-02-07T00:32:17.062Z,97.58
2017-02-07T00:32:57.700Z,97.2
2017-02-07T00:33:38.369Z,97.68
2017-02-07T00:34:19.023Z,97.2
2017-02-07T00:34:59.658Z,97.49
2017-02-07T00:35:40.307Z,97.2
2017-02-07T00:36:20.979Z,97.11
2017-02-07T00:37:01.621Z,97.11
2017-02-07T00:37:42.272Z,97.49
2017-02-07T00:38:22.956Z,97.49
2017-02-07T00:39:03.574Z,97.49
2017-02-07T00:39:44.233Z,97.11
2017-02-07T00:40:24.861Z,97.2
2017-02-07T00:41:05.534Z,97.58
2017-02-07T00:41:46.189Z,97.2
2017-02-07T00:42:26.842Z,97.2
2017-02-07T00:43:07.493Z,97.2
2017-02-07T00:43:48.133Z,97.2
2017-02-07T00:44:28.793Z,97.2
2017-02-07T00:45:09.449Z,97.2
2017-02-07T00:45:50.104Z,97.3
2017-02-07T00:46:30.749Z,97.2
2017-02-07T00:47:11.422Z,97.11
2017-02-07T00:47:52.064Z,97.3
2017-02-07T00:48:32.722Z,97.2
2017-02-07T00:49:13.444Z,97.3
2017-02-07T00:49:54.023Z,97.11
2017-02-07T00:50:34.654Z,97.3
2017-02-07T00:51:15.352Z,97.2
2017-02-07T00:51:55.991Z,97.3
2017-02-07T00:52:36.646Z,97.2
2017-02-07T00:53:17.285Z,97.3
2017-02-07T00:53:57.934Z,97.2
2017-02-07T00:54:38.592Z,97.11
2017-02-07T00:55:19.244Z,97.11
2017-02-07T00:55:59.898Z,97.11
2017-02-07T00:56:40.550Z,97.39
2017-02-07T00:57:21.196Z,97.2
2017-02-07T00:58:01.861Z,97.11
2017-02-07T00:58:42.509Z,97.11
2017-02-07T00:59:23.161Z,97.58
2017-02-07T01:00:03.843Z,97.02
2017-02-07T01:00:44.469Z,97.39
2017-02-07T01:01:25.119Z,97.39
2017-02-07T01:02:05.783Z,97.39
2017-02-07T01:02:46.426Z,97.39
2017-02-07T01:03:27.078Z,97.39
2017-02-07T01:04:07.742Z,97.39
2017-02-07T01:04:48.387Z,97.39
2017-02-07T01:05:29.038Z,97.39
2017-02-07T01:06:09.699Z,97.3
2017-02-07T01:06:50.359Z,97.39
2017-02-07T01:07:31.019Z,97.39
2017-02-07T01:08:11.648Z,97.39
2017-02-07T01:08:52.221Z,97.39
2017-02-07T01:09:32.863Z,97.39
2017-02-07T01:10:13.503Z,97.39
2017-02-07T01:10:54.076Z,97.39
2017-02-07T01:11:34.736Z,97.39
2017-02-07T01:12:15.338Z,97.39
2017-02-07T01:12:55.936Z,97.39
2017-02-07T01:13:36.579Z,97.39
2017-02-07T01:14:17.261Z,97.11
2017-02-07T01:14:57.862Z,97.39
2017-02-07T01:15:38.489Z,97.3
2017-02-07T01:16:19.123Z,97.2
2017-02-07T01:16:59.748Z,97.39
2017-02-07T01:17:40.323Z,97.39
2017-02-07T01:18:22.127Z,97.39
2017-02-07T01:19:02.712Z,97.39
2017-02-07T01:19:43.383Z,97.3
2017-02-07T01:20:24.023Z,97.39
2017-02-07T01:21:04.677Z,97.39
2017-02-07T01:21:45.330Z,97.49
2017-02-07T01:22:25.983Z,97.3
2017-02-07T01:23:06.564Z,97.3
2017-02-07T01:23:47.168Z,97.39
2017-02-07T01:24:27.749Z,97.49
2017-02-07T01:25:08.381Z,97.3
2017-02-07T01:25:48.972Z,97.49
2017-02-07T01:26:29.578Z,97.3
2017-02-07T01:27:10.156Z,97.39
2017-02-07T01:27:50.794Z,97.3
2017-02-07T01:28:31.391Z,97.49
2017-02-07T01:29:11.983Z,97.39
2017-02-07T01:29:52.558Z,97.3
2017-02-07T01:30:33.215Z,97.39
2017-02-07T01:31:13.789Z,97.39
2017-02-07T01:31:54.393Z,97.39
2017-02-07T01:32:34.949Z,97.3
2017-02-07T01:33:15.609Z,97.39
2017-02-07T01:33:56.266Z,97.3
2017-02-07T01:34:36.912Z,97.39
2017-02-07T01:35:17.568Z,97.49
2017-02-07T01:35:58.233Z,97.39
2017-02-07T01:36:38.884Z,97.3
2017-02-07T01:37:19.536Z,97.3
2017-02-07T01:38:00.189Z,97.39
2017-02-07T01:38:40.830Z,97.3
2017-02-07T01:39:21.497Z,97.3
2017-02-07T01:40:02.131Z,97.39
2017-02-07T01:40:42.787Z,97.39
2017-02-07T01:41:23.442Z,97.3
2017-02-07T01:42:04.094Z,97.3
2017-02-07T01:42:44.763Z,97.39
2017-02-07T01:43:25.346Z,97.3
2017-02-07T01:44:05.944Z,97.39
2017-02-07T01:44:46.517Z,97.2
2017-02-07T01:45:27.153Z,97.39
2017-02-07T01:46:07.751Z,97.39
2017-02-07T01:46:48.344Z,97.39
2017-02-07T01:47:28.941Z,97.39
2017-02-07T01:48:09.564Z,97.39
2017-02-07T01:48:50.214Z,97.3
2017-02-07T01:49:30.867Z,97.39
2017-02-07T01:50:11.537Z,97.2
2017-02-07T01:50:52.170Z,97.3
2017-02-07T01:51:32.841Z,97.2
2017-02-07T01:52:13.478Z,97.49
2017-02-07T01:52:54.141Z,97.3
2017-02-07T01:53:34.796Z,97.2
2017-02-07T01:54:15.435Z,97.3
2017-02-07T01:54:56.088Z,97.2
2017-02-07T01:55:36.757Z,97.3
2017-02-07T01:56:17.393Z,97.49
2017-02-07T01:56:58.047Z,97.3
2017-02-07T01:57:38.701Z,97.49
2017-02-07T01:58:19.354Z,97.39
2017-02-07T01:59:00.024Z,97.49
2017-02-07T01:59:40.720Z,97.3
2017-02-07T02:00:21.313Z,97.49
2017-02-07T02:01:01.966Z,97.3
2017-02-07T02:01:42.633Z,97.3
2017-02-07T02:02:23.183Z,97.3
2017-02-07T02:03:03.825Z,97.39
2017-02-07T02:03:44.488Z,97.49
2017-02-07T02:04:25.145Z,97.3
2017-02-07T02:05:05.796Z,97.49
2017-02-07T02:05:46.432Z,97.2
2017-02-07T02:06:27.084Z,97.49
2017-02-07T02:07:07.743Z,97.2
2017-02-07T02:07:48.398Z,97.2
2017-02-07T02:08:29.045Z,97.2
2017-02-07T02:09:09.699Z,97.3
2017-02-07T02:09:50.414Z,97.3
2017-02-07T02:10:31.053Z,97.3
2017-02-07T02:11:11.664Z,97.49
2017-02-07T02:11:52.307Z,97.3
2017-02-07T02:12:32.974Z,97.2
2017-02-07T02:13:13.627Z,97.3
2017-02-07T02:13:54.280Z,97.3
2017-02-07T02:14:34.927Z,97.49
2017-02-07T02:15:15.578Z,97.39
2017-02-07T02:15:56.239Z,97.49
2017-02-07T02:16:36.882Z,97.49
2017-02-07T02:17:17.535Z,97.2
2017-02-07T02:17:58.193Z,97.3
2017-02-07T02:18:38.847Z,97.49
2017-02-07T02:19:19.604Z,97.3
2017-02-07T02:20:00.257Z,97.49
2017-02-07T02:20:40.916Z,97.49
2017-02-07T02:21:21.560Z,97.49
2017-02-07T02:22:02.259Z,97.3
2017-02-07T02:22:42.879Z,97.3
2017-02-07T02:23:23.550Z,97.49
2017-02-07T02:24:04.155Z,97.3
2017-02-07T02:24:44.722Z,97.3
2017-02-07T02:25:25.384Z,97.3
2017-02-07T02:26:05.970Z,97.2
2017-02-07T02:26:46.562Z,97.3
2017-02-07T02:27:27.165Z,97.49
2017-02-07T02:28:07.795Z,97.3
2017-02-07T02:28:48.433Z,97.3
2017-02-07T02:29:29.097Z,97.11
2017-02-07T02:30:09.751Z,97.3
2017-02-07T02:30:50.392Z,97.3
2017-02-07T02:31:31.050Z,97.3
2017-02-07T02:32:11.703Z,97.2
2017-02-07T02:32:52.357Z,97.3
2017-02-07T02:33:32.947Z,97.2
2017-02-07T02:34:14.567Z,97.49
2017-02-07T02:34:55.112Z,97.3
2017-02-07T02:35:35.789Z,97.49
2017-02-07T02:36:16.370Z,97.49
2017-02-07T02:36:56.970Z,97.49
2017-02-07T02:37:37.540Z,97.49
2017-02-07T02:38:18.188Z,97.49
2017-02-07T02:38:58.862Z,97.3
2017-02-07T02:39:39.498Z,97.3
2017-02-07T02:40:20.154Z,97.3
2017-02-07T02:41:00.803Z,97.49
2017-02-07T02:41:41.444Z,97.2
2017-02-07T02:42:22.111Z,97.58
2017-02-07T02:43:02.761Z,97.11
2017-02-07T02:43:43.430Z,97.2
2017-02-07T02:44:24.069Z,97.58
2017-02-07T02:45:04.709Z,97.58
2017-02-07T02:45:45.372Z,97.58
2017-02-07T02:46:26.025Z,97.11
2017-02-07T02:47:06.683Z,97.49
2017-02-07T02:47:47.341Z,97.2
2017-02-07T02:48:27.983Z,97.58
2017-02-07T02:49:08.638Z,97.68
2017-02-07T02:49:49.291Z,97.68
2017-02-07T02:50:29.943Z,97.49
2017-02-07T02:51:10.607Z,97.49
2017-02-07T02:51:51.258Z,97.58
2017-02-07T02:52:31.911Z,97.58
2017-02-07T02:53:12.541Z,97.58
2017-02-07T02:53:53.147Z,97.58
2017-02-07T02:54:33.741Z,97.68
2017-02-07T02:55:14.321Z,97.58
2017-02-07T02:55:54.970Z,97.58
2017-02-07T02:56:35.556Z,97.49
2017-02-07T02:57:16.151Z,97.49
2017-02-07T02:57:56.699Z,97.49
2017-02-07T02:58:37.368Z,97.3
2017-02-07T02:59:17.963Z,97.39
2017-02-07T02:59:58.555Z,97.02
2017-02-07T03:00:39.129Z,97.11
2017-02-07T03:01:19.775Z,96.92
2017-02-07T03:02:00.372Z,96.92
2017-02-07T03:02:40.964Z,96.92
2017-02-07T03:03:21.611Z,96.73
2017-02-07T03:04:02.268Z,96.92
2017-02-07T03:04:42.920Z,96.92
2017-02-07T03:05:23.574Z,96.92
2017-02-07T03:06:04.226Z,96.92
2017-02-07T03:06:44.879Z,97.02
2017-02-07T03:07:25.536Z,96.64
2017-02-07T03:08:06.183Z,96.64
2017-02-07T03:08:46.851Z,96.83
2017-02-07T03:09:27.492Z,96.83
2017-02-07T03:10:08.144Z,96.83
2017-02-07T03:10:48.795Z,96.83
2017-02-07T03:11:29.449Z,96.64
2017-02-07T03:12:10.102Z,96.92
2017-02-07T03:12:50.676Z,96.54
2017-02-07T03:13:31.323Z,96.92
2017-02-07T03:14:11.907Z,96.83
2017-02-07T03:14:52.530Z,96.92
2017-02-07T03:15:33.098Z,96.83
2017-02-07T03:16:13.734Z,97.02
2017-02-07T03:16:54.302Z,96.83
2017-02-07T03:17:34.932Z,97.02
2017-02-07T03:18:15.501Z,97.02
2017-02-07T03:18:56.141Z,96.83
2017-02-07T03:19:36.733Z,96.83
2017-02-07T03:20:17.320Z,97.02
2017-02-07T03:20:57.893Z,97.11
2017-02-07T03:21:38.541Z,97.11
2017-02-07T03:22:19.141Z,97.11
2017-02-07T03:22:59.736Z,97.11
2017-02-07T03:23:40.295Z,97.02
2017-02-07T03:24:20.953Z,96.83
2017-02-07T03:25:01.614Z,96.83
2017-02-07T03:25:42.257Z,97.02
2017-02-07T03:26:22.927Z,96.83
2017-02-07T03:27:03.560Z,97.02
2017-02-07T03:27:44.216Z,97.11
2017-02-07T03:28:24.800Z,97.02
2017-02-07T03:29:05.409Z,96.26
2017-02-07T03:29:45.980Z,96.73
2017-02-07T03:30:26.618Z,96.64
2017-02-07T03:31:07.219Z,96.45
2017-02-07T03:31:47.817Z,96.64
2017-02-07T03:32:28.376Z,96.64
2017-02-07T03:33:09.031Z,96.64
2017-02-07T03:33:49.604Z,96.64
2017-02-07T03:34:30.219Z,96.45
2017-02-07T03:35:10.785Z,96.45
2017-02-07T03:35:51.453Z,96.64
2017-02-07T03:36:32.134Z,96.64
2017-02-07T03:37:12.735Z,96.73
2017-02-07T03:37:53.302Z,96.64
2017-02-07T03:38:33.948Z,96.54
2017-02-07T03:39:14.597Z,96.73
2017-02-07T03:39:55.250Z,96.64
2017-02-07T03:40:35.902Z,96.64
2017-02-07T03:41:16.560Z,96.83
2017-02-07T03:41:57.226Z,96.64
2017-02-07T03:42:37.860Z,95.97
2017-02-07T03:43:18.508Z,95.97
2017-02-07T03:43:59.113Z,96.73
2017-02-07T03:44:39.703Z,96.35
2017-02-07T03:45:20.269Z,96.45
2017-02-07T03:46:00.920Z,96.35
2017-02-07T03:46:41.519Z,96.16
2017-02-07T03:47:22.219Z,96.35
2017-02-07T03:48:02.779Z,96.07
2017-02-07T03:48:43.430Z,96.16
2017-02-07T03:49:24.084Z,96.07
2017-02-07T03:50:04.717Z,96.26
2017-02-07T03:50:45.388Z,96.26
2017-02-07T03:51:26.032Z,96.35
2017-02-07T03:52:06.705Z,96.45
2017-02-07T03:52:47.345Z,96.45
2017-02-07T03:53:27.997Z,96.07
2017-02-07T03:54:08.599Z,95.88
2017-02-07T03:54:49.183Z,96.35
2017-02-07T03:55:29.750Z,96.26
2017-02-07T03:56:10.418Z,96.07
2017-02-07T03:56:51.006Z,96.16
2017-02-07T03:57:31.591Z,96.16
2017-02-07T03:58:12.164Z,95.78
2017-02-07T03:58:52.815Z,95.97
2017-02-07T03:59:33.468Z,96.16
2017-02-07T04:00:14.124Z,95.97
2017-02-07T04:00:54.790Z,96.07
2017-02-07T04:01:35.427Z,96.16
2017-02-07T04:02:16.075Z,96.16
2017-02-07T04:02:56.733Z,95.97
2017-02-07T04:03:37.381Z,96.07
2017-02-07T04:04:18.039Z,96.16
2017-02-07T04:04:58.691Z,95.88
2017-02-07T04:05:39.344Z,95.88
2017-02-07T04:06:19.995Z,96.16
2017-02-07T04:07:00.664Z,96.16
2017-02-07T04:07:41.322Z,96.16
2017-02-07T04:08:21.962Z,96.16
2017-02-07T04:09:02.553Z,95.78
2017-02-07T04:09:43.135Z,96.16
2017-02-07T04:10:23.704Z,96.26
2017-02-07T04:11:04.367Z,96.26
2017-02-07T04:11:44.970Z,96.26
2017-02-07T04:12:25.661Z,96.26
2017-02-07T04:13:06.225Z,96.26
2017-02-07T04:13:46.877Z,96.16
2017-02-07T04:14:27.475Z,95.78
2017-02-07T04:15:08.170Z,95.88
2017-02-07T04:15:48.722Z,96.16
2017-02-07T04:16:29.391Z,96.16
2017-02-07T04:17:09.978Z,96.35
2017-02-07T04:17:50.575Z,96.35
2017-02-07T04:18:31.142Z,96.35
2017-02-07T04:19:11.796Z,96.35
2017-02-07T04:19:52.387Z,96.16
2017-02-07T04:20:32.982Z,96.16
2017-02-07T04:21:14.722Z,96.16
2017-02-07T04:21:55.330Z,96.35
2017-02-07T04:22:35.919Z,96.16
2017-02-07T04:23:16.493Z,95.88
2017-02-07T04:23:57.083Z,96.31
2017-02-07T04:24:37.717Z,96.16
2017-02-07T04:25:18.272Z,95.83
2017-02-07T04:25:58.979Z,95.97
2017-02-07T04:26:39.574Z,96.02
2017-02-07T04:27:20.145Z,95.83
2017-02-07T04:28:00.795Z,95.93
2017-02-07T04:28:41.417Z,96.12
2017-02-07T04:29:22.925Z,96.12
2017-02-07T04:30:03.570Z,96.02
2017-02-07T04:30:44.201Z,96.02
2017-02-07T04:31:24.759Z,96.02
2017-02-07T04:32:05.427Z,96.02
2017-02-07T04:32:46.068Z,96.02
2017-02-07T04:33:26.639Z,95.93
2017-02-07T04:34:07.293Z,96.12
2017-02-07T04:34:47.881Z,96.12
2017-02-07T04:35:28.473Z,96.02
2017-02-07T04:36:09.053Z,96.02
2017-02-07T04:36:49.699Z,96.12
2017-02-07T04:37:30.290Z,96.02
2017-02-07T04:38:10.885Z,95.83
2017-02-07T04:38:51.537Z,96.12
2017-02-07T04:39:32.182Z,95.74
2017-02-07T04:40:12.837Z,96.12
2017-02-07T04:40:53.489Z,95.93
2017-02-07T04:41:34.154Z,96.02
2017-02-07T04:42:14.788Z,96.02
2017-02-07T04:42:55.453Z,95.93
2017-02-07T04:43:36.013Z,96.02
2017-02-07T04:44:16.670Z,96.12
2017-02-07T04:44:57.263Z,96.02
2017-02-07T04:45:37.958Z,96.02
2017-02-07T04:46:18.534Z,95.93
2017-02-07T04:46:59.194Z,96.12
2017-02-07T04:47:39.873Z,96.12
2017-02-07T04:48:20.466Z,95.83
2017-02-07T04:49:01.036Z,95.93
2017-02-07T04:49:41.688Z,96.02
2017-02-07T04:50:22.283Z,95.93
2017-02-07T04:51:02.883Z,96.12
2017-02-07T04:51:43.448Z,95.74
2017-02-07T04:52:24.099Z,95.93
2017-02-07T04:53:04.691Z,96.21
2017-02-07T04:53:45.285Z,95.93
2017-02-07T04:54:25.852Z,96.31
2017-02-07T04:55:06.498Z,95.83
2017-02-07T04:55:47.096Z,95.83
2017-02-07T04:56:27.693Z,96.12
2017-02-07T04:57:08.262Z,96.21
2017-02-07T04:57:48.909Z,96.12
2017-02-07T04:58:30.532Z,96.12
2017-02-07T04:59:11.137Z,95.83
2017-02-07T04:59:51.793Z,95.83
2017-02-07T05:00:32.443Z,95.93
2017-02-07T05:01:13.094Z,95.83
2017-02-07T05:01:53.750Z,96.02
2017-02-07T05:02:34.406Z,95.93
2017-02-07T05:03:15.055Z,96.02
2017-02-07T05:03:55.685Z,96.12
2017-02-07T05:04:36.249Z,96.12
2017-02-07T05:05:16.914Z,96.02
2017-02-07T05:05:57.552Z,96.12
2017-02-07T05:06:38.106Z,96.12
2017-02-07T05:07:18.757Z,96.12
2017-02-07T05:07:59.403Z,96.12
2017-02-07T05:08:39.961Z,95.93
2017-02-07T05:09:20.615Z,96.12
2017-02-07T05:10:01.220Z,96.02
2017-02-07T05:10:41.808Z,95.93
2017-02-07T05:11:22.359Z,96.02
2017-02-07T05:12:03.033Z,96.12
2017-02-07T05:12:43.626Z,95.83
2017-02-07T05:13:24.212Z,95.83
2017-02-07T05:14:04.784Z,95.83
2017-02-07T05:14:45.433Z,95.83
2017-02-07T05:15:26.033Z,96.12
2017-02-07T05:16:06.622Z,96.02
2017-02-07T05:16:47.186Z,95.83
2017-02-07T05:17:27.832Z,96.21
2017-02-07T05:18:08.479Z,96.31
2017-02-07T05:18:50.120Z,96.21
2017-02-07T05:19:30.707Z,96.31
2017-02-07T05:20:11.365Z,96.21
2017-02-07T05:20:54.765Z,96.31
2017-02-07T05:21:35.352Z,96.21
2017-02-07T05:22:15.981Z,96.31
2017-02-07T05:22:56.629Z,96.21
2017-02-07T05:23:37.219Z,95.74
2017-02-07T05:24:17.871Z,96.12
2017-02-07T05:24:58.539Z,96.21
2017-02-07T05:25:39.176Z,96.21
2017-02-07T05:26:19.843Z,96.21
2017-02-07T05:27:00.484Z,96.21
2017-02-07T05:27:41.136Z,96.31
2017-02-07T05:28:21.728Z,96.21
2017-02-07T05:29:02.301Z,96.31
2017-02-07T05:29:42.946Z,96.02
2017-02-07T05:30:23.548Z,96.21
2017-02-07T05:31:04.138Z,96.02
2017-02-07T05:31:44.708Z,96.21
2017-02-07T05:32:25.364Z,96.31
2017-02-07T05:33:05.949Z,96.21
2017-02-07T05:33:46.544Z,96.4
2017-02-07T05:34:27.117Z,96.31
2017-02-07T05:35:07.763Z,96.02
2017-02-07T05:35:48.351Z,95.74
2017-02-07T05:36:28.950Z,95.55
2017-02-07T05:37:09.523Z,95.74
2017-02-07T05:37:50.167Z,95.55
2017-02-07T05:38:30.819Z,95.83
2017-02-07T05:39:11.379Z,95.55
2017-02-07T05:39:52.030Z,95.74
2017-02-07T05:40:32.664Z,95.83
2017-02-07T05:41:13.237Z,95.74
2017-02-07T05:41:53.896Z,95.64
2017-02-07T05:42:34.520Z,95.74
2017-02-07T05:43:15.090Z,95.64
2017-02-07T05:43:55.742Z,95.55
2017-02-07T05:44:36.333Z,95.93
2017-02-07T05:45:16.909Z,96.02
2017-02-07T05:45:57.476Z,96.02
2017-02-07T05:46:38.156Z,96.02
2017-02-07T05:47:18.740Z,96.02
2017-02-07T05:47:59.335Z,95.64
2017-02-07T05:48:39.886Z,96.02
2017-02-07T05:49:20.564Z,96.02
2017-02-07T05:50:01.241Z,96.02
2017-02-07T05:50:41.845Z,96.02
2017-02-07T05:51:22.406Z,95.93
2017-02-07T05:52:03.066Z,96.02
2017-02-07T05:52:43.657Z,95.93
2017-02-07T05:53:24.255Z,95.93
2017-02-07T05:54:04.832Z,96.12
2017-02-07T05:54:45.469Z,95.93
2017-02-07T05:55:26.119Z,95.93
2017-02-07T05:56:06.772Z,95.93
2017-02-07T05:56:47.444Z,96.02
2017-02-07T05:57:28.089Z,95.93
2017-02-07T05:58:08.737Z,96.02
2017-02-07T05:58:49.385Z,95.93
2017-02-07T05:59:30.034Z,96.12
2017-02-07T06:00:10.701Z,95.93
2017-02-07T06:00:51.356Z,96.02
2017-02-07T06:01:31.987Z,95.93
2017-02-07T06:02:12.652Z,95.93
2017-02-07T06:02:53.297Z,95.93
2017-02-07T06:03:33.967Z,95.93
2017-02-07T06:04:14.610Z,96.02
2017-02-07T06:04:55.270Z,95.93
2017-02-07T06:05:35.915Z,95.93
2017-02-07T06:06:16.575Z,96.02
2017-02-07T06:06:57.229Z,95.93
2017-02-07T06:07:37.886Z,95.83
2017-02-07T06:08:18.529Z,95.93
2017-02-07T06:08:59.225Z,95.83
2017-02-07T06:09:39.832Z,95.93
2017-02-07T06:10:20.413Z,95.83
2017-02-07T06:11:01.045Z,95.93
2017-02-07T06:11:41.632Z,96.02
2017-02-07T06:12:22.237Z,95.74
2017-02-07T06:13:02.807Z,96.02
2017-02-07T06:13:43.449Z,95.93
2017-02-07T06:14:24.044Z,95.93
2017-02-07T06:15:04.734Z,95.83
2017-02-07T06:15:45.296Z,95.83
2017-02-07T06:16:25.961Z,95.83
2017-02-07T06:17:06.549Z,95.74
2017-02-07T06:17:47.144Z,96.02
2017-02-07T06:18:27.702Z,95.93
2017-02-07T06:19:08.368Z,95.74
2017-02-07T06:19:48.958Z,95.74
2017-02-07T06:20:29.558Z,96.12
2017-02-07T06:21:10.127Z,95.74
2017-02-07T06:21:50.776Z,95.83
2017-02-07T06:22:31.466Z,95.83
2017-02-07T06:23:12.059Z,95.74
2017-02-07T06:23:52.712Z,95.93
2017-02-07T06:24:33.362Z,95.93
2017-02-07T06:25:14.016Z,95.74
2017-02-07T06:25:54.670Z,95.83
2017-02-07T06:26:35.321Z,96.02
2017-02-07T06:27:15.975Z,95.74
2017-02-07T06:27:56.628Z,95.74
2017-02-07T06:28:37.216Z,95.74
2017-02-07T06:29:17.853Z,95.74
2017-02-07T06:29:58.508Z,95.93
2017-02-07T06:30:39.158Z,96.02
2017-02-07T06:31:19.818Z,95.83
2017-02-07T06:32:00.466Z,95.83
2017-02-07T06:32:41.119Z,95.74
2017-02-07T06:33:21.780Z,95.93
2017-02-07T06:34:02.412Z,96.02
2017-02-07T06:34:43.085Z,95.74
2017-02-07T06:35:23.731Z,95.74
2017-02-07T06:36:04.390Z,95.93
2017-02-07T06:36:45.026Z,95.83
2017-02-07T06:37:25.685Z,95.93
2017-02-07T06:38:06.341Z,95.93
2017-02-07T06:38:46.995Z,95.74
2017-02-07T06:39:27.581Z,96.02
2017-02-07T06:40:08.180Z,95.93
2017-02-07T06:40:48.749Z,95.74
2017-02-07T06:41:29.397Z,95.74
2017-02-07T06:42:09.990Z,95.74
2017-02-07T06:42:50.583Z,95.74
2017-02-07T06:43:31.162Z,95.74
2017-02-07T06:44:11.813Z,95.74
2017-02-07T06:44:52.510Z,96.02
2017-02-07T06:45:33.097Z,96.02
2017-02-07T06:46:13.665Z,96.02
2017-02-07T06:46:54.307Z,95.93
2017-02-07T06:47:34.907Z,96.02
2017-02-07T06:48:15.596Z,95.93
2017-02-07T06:48:56.152Z,95.93
2017-02-07T06:49:36.821Z,95.93
2017-02-07T06:50:17.450Z,95.83
2017-02-07T06:50:58.013Z,95.93
2017-02-07T06:51:38.686Z,95.93
2017-02-07T06:52:19.306Z,95.93
2017-02-07T06:52:59.860Z,95.83
2017-02-07T06:53:40.537Z,95.83
2017-02-07T06:54:21.179Z,95.83
2017-02-07T06:55:01.838Z,96.02
2017-02-07T06:55:42.473Z,95.55
2017-02-07T06:56:23.133Z,95.74
2017-02-07T06:57:03.783Z,95.55
2017-02-07T06:57:44.431Z,96.12
2017-02-07T06:58:25.118Z,95.93
2017-02-07T06:59:05.765Z,95.93
2017-02-07T06:59:46.412Z,95.93
2017-02-07T07:00:27.065Z,95.83
2017-02-07T07:01:07.700Z,95.93
2017-02-07T07:01:48.359Z,96.12
2017-02-07T07:02:29.018Z,95.93
2017-02-07T07:03:09.656Z,96.12
2017-02-07T07:03:50.327Z,95.83
2017-02-07T07:04:30.984Z,96.02
2017-02-07T07:05:11.630Z,95.93
2017-02-07T07:05:52.287Z,95.93
2017-02-07T07:06:32.939Z,96.12
2017-02-07T07:07:13.591Z,96.12
2017-02-07T07:07:54.238Z,96.12
2017-02-07T07:08:34.893Z,95.83
2017-02-07T07:09:15.560Z,96.12
2017-02-07T07:09:56.179Z,95.83
2017-02-07T07:10:36.736Z,96.12
2017-02-07T07:11:17.463Z,96.12
2017-02-07T07:11:58.087Z,95.83
2017-02-07T07:12:38.692Z,95.36
2017-02-07T07:13:19.260Z,95.45
2017-02-07T07:13:59.903Z,96.02
2017-02-07T07:14:40.557Z,95.07
2017-02-07T07:15:21.119Z,96.12
2017-02-07T07:16:01.771Z,96.12
2017-02-07T07:16:42.423Z,96.12
2017-02-07T07:17:23.079Z,96.12
2017-02-07T07:18:03.722Z,95.36
2017-02-07T07:18:44.372Z,95.45
2017-02-07T07:19:24.971Z,96.02
2017-02-07T07:20:05.563Z,95.45
2017-02-07T07:20:46.114Z,95.45
2017-02-07T07:21:26.786Z,95.55
2017-02-07T07:22:07.378Z,95.36
2017-02-07T07:22:47.970Z,95.55
2017-02-07T07:23:28.535Z,95.36
2017-02-07T07:24:09.198Z,95.36
2017-02-07T07:24:49.851Z,95.36
2017-02-07T07:25:30.501Z,95.36
2017-02-07T07:26:11.155Z,95.26
2017-02-07T07:26:51.785Z,95.45
2017-02-07T07:27:32.460Z,95.36
2017-02-07T07:28:13.105Z,95.45
2017-02-07T07:28:53.752Z,95.36
2017-02-07T07:29:34.435Z,95.45
2017-02-07T07:30:15.077Z,95.45
2017-02-07T07:30:55.726Z,95.45
2017-02-07T07:31:36.400Z,95.36
2017-02-07T07:32:17.046Z,95.26
2017-02-07T07:32:57.685Z,95.45
2017-02-07T07:33:38.337Z,95.45
2017-02-07T07:34:18.969Z,95.36
2017-02-07T07:34:59.540Z,95.74
2017-02-07T07:35:40.206Z,95.74
2017-02-07T07:36:20.857Z,95.74
2017-02-07T07:37:01.496Z,95.55
2017-02-07T07:37:42.271Z,95.45
2017-02-07T07:38:22.909Z,95.45
2017-02-07T07:39:03.557Z,95.45
2017-02-07T07:39:44.212Z,95.45
2017-02-07T07:40:24.861Z,95.45
2017-02-07T07:41:05.521Z,95.55
2017-02-07T07:41:46.167Z,95.59
2017-02-07T07:42:26.821Z,95.55
2017-02-07T07:43:07.467Z,95.59
2017-02-07T07:43:48.129Z,95.36
2017-02-07T07:44:28.784Z,95.36
2017-02-07T07:45:09.432Z,95.36
2017-02-07T07:45:50.092Z,95.36
2017-02-07T07:46:30.713Z,95.36
2017-02-07T07:47:11.331Z,95.36
2017-02-07T07:47:51.986Z,95.55
2017-02-07T07:48:32.637Z,95.45
2017-02-07T07:49:13.224Z,95.26
2017-02-07T07:49:53.898Z,95.31
2017-02-07T07:50:34.540Z,95.55
2017-02-07T07:51:15.102Z,95.4
2017-02-07T07:51:55.763Z,95.31
2017-02-07T07:52:36.390Z,95.69
2017-02-07T07:53:16.952Z,95.31
2017-02-07T07:53:57.610Z,95.31
2017-02-07T07:54:38.264Z,95.64
2017-02-07T07:55:18.920Z,95.26
2017-02-07T07:55:59.575Z,95.31
2017-02-07T07:56:40.228Z,95.78
2017-02-07T07:57:20.938Z,95.21
2017-02-07T07:58:01.530Z,95.31
2017-02-07T07:58:42.181Z,95.59
2017-02-07T07:59:22.831Z,95.59
2017-02-07T08:00:03.486Z,95.69
2017-02-07T08:00:45.165Z,95.59
2017-02-07T08:01:26.833Z,95.4
2017-02-07T08:02:07.480Z,95.5
2017-02-07T08:02:49.072Z,95.59
2017-02-07T08:03:29.723Z,95.4
2017-02-07T08:04:10.306Z,95.21
2017-02-07T08:04:50.890Z,95.21
2017-02-07T08:05:31.465Z,95.21
2017-02-07T08:06:13.129Z,95.21
2017-02-07T08:06:53.736Z,95.21
2017-02-07T08:07:39.859Z,95.12
2017-02-07T08:08:20.415Z,95.21
2017-02-07T08:09:01.078Z,95.03
2017-02-07T08:09:41.731Z,95.03
2017-02-07T08:10:23.319Z,95.31
2017-02-07T08:11:08.669Z,95.31
2017-02-07T08:11:49.329Z,95.03
2017-02-07T08:12:31.921Z,95.21
2017-02-07T08:13:12.606Z,94.93
2017-02-07T08:13:54.249Z,95.31
2017-02-07T08:14:34.917Z,95.31
2017-02-07T08:15:15.579Z,95.31
2017-02-07T08:15:57.240Z,95.12
2017-02-07T08:16:38.938Z,95.31
2017-02-07T08:17:19.562Z,95.4
2017-02-07T08:18:01.234Z,95.21
2017-02-07T08:18:41.902Z,95.21
2017-02-07T08:19:23.580Z,95.12
2017-02-07T08:20:04.230Z,95.21
2017-02-07T08:20:49.879Z,95.4
2017-02-07T08:21:30.560Z,95.31
2017-02-07T08:22:13.250Z,95.21
2017-02-07T08:22:55.054Z,95.21
2017-02-07T08:23:35.663Z,95.21
2017-02-07T08:24:16.239Z,95.59
2017-02-07T08:24:56.889Z,95.5
2017-02-07T08:25:38.550Z,95.5
2017-02-07T08:26:19.115Z,95.4
2017-02-07T08:26:59.764Z,95.4
2017-02-07T08:27:41.425Z,95.31
2017-02-07T08:28:21.987Z,95.31
2017-02-07T08:29:03.553Z,95.21
2017-02-07T08:29:44.156Z,95.31
2017-02-07T08:30:24.759Z,95.4
2017-02-07T08:31:05.315Z,95.31
2017-02-07T08:31:45.987Z,95.31
2017-02-07T08:32:26.643Z,95.31
2017-02-07T08:33:07.211Z,95.31
2017-02-07T08:33:53.699Z,95.31
2017-02-07T08:34:34.342Z,94.65
2017-02-07T08:35:15.919Z,94.93
2017-02-07T08:35:57.609Z,94.93
2017-02-07T08:36:38.257Z,94.74
2017-02-07T08:37:23.723Z,95.03
2017-02-07T08:38:04.383Z,94.74
2017-02-07T08:38:45.023Z,94.65
2017-02-07T08:39:25.664Z,94.65
2017-02-07T08:40:06.228Z,94.65
2017-02-07T08:40:46.898Z,94.93
2017-02-07T08:41:28.537Z,95.03
2017-02-07T08:42:09.084Z,94.84
2017-02-07T08:42:50.691Z,94.74
2017-02-07T08:43:31.331Z,94.84
2017-02-07T08:44:11.894Z,94.74
2017-02-07T08:44:52.546Z,94.93
2017-02-07T08:45:33.183Z,94.93
2017-02-07T08:46:13.736Z,94.65
2017-02-07T08:46:54.392Z,94.84